Resolute — WTW2234 — position and weather

sailwx.info

Track history (hours):
 
Tides and Currents Weather Stations Pressure Air Temp Water Temp Dewpoint Dewpoint Depression Visibility Wind Speed Wind Dir Waves Ship Positions

Resolute

Owner: Providence Steamboat Co., PROVIDENCE, RI. More information available from US FCC via Universal Licensing System and Coast Guard Vessel Documentation Center.

Last reported at 2015-Jul-29 00:33 UTC. Time now 2015-Jul-29 00:34 UTC.
Position N 40°40' W 074°05'.

Length 30 m; draft 4 m.

Type: Tug. MMSI: 367091630.

Date/timePositionNaut miles runAvg speedWind from/ knotsBaromVisibWave heightAir tempDewpointWater temp
2015-Jul-29 00:33N 40°40' W 074°05'2 2.3
2015-Jul-28 23:33N 40°38' W 074°03'8 8.0
2015-Jul-28 22:33N 40°31' W 073°59'9 9.2
2015-Jul-28 21:34N 40°40' W 074°04'0 0.4
2015-Jul-28 20:33N 40°40' W 074°04'0 0.0
2015-Jul-28 19:33N 40°40' W 074°04'0 0.0
2015-Jul-28 18:33N 40°40' W 074°04'3 3.2
2015-Jul-28 17:33N 40°40' W 074°08'3 2.5
2015-Jul-28 16:34N 40°39' W 074°06'0 0.0
2015-Jul-28 15:33N 40°39' W 074°06'0 0.0
2015-Jul-28 14:33N 40°39' W 074°06'0 0.0
2015-Jul-28 13:33N 40°39' W 074°06'0 0.0
2015-Jul-28 12:33N 40°39' W 074°06'0 0.0
2015-Jul-28 11:33N 40°39' W 074°06'0 0.0
2015-Jul-28 10:33N 40°39' W 074°06'0 0.0
2015-Jul-28 09:33N 40°39' W 074°06'0 0.0
2015-Jul-28 08:33N 40°39' W 074°06'0 0.0
2015-Jul-28 07:33N 40°39' W 074°06'0 0.0
2015-Jul-28 06:33N 40°39' W 074°06'0 0.0
2015-Jul-28 05:33N 40°39' W 074°06'0 0.0
2015-Jul-28 04:33N 40°39' W 074°06'0 0.0
2015-Jul-28 03:33N 40°39' W 074°06'0 0.0
2015-Jul-28 02:33N 40°39' W 074°06'0 0.0
2015-Jul-28 01:33N 40°39' W 074°06'0 0.0
2015-Jul-28 00:33N 40°39' W 074°06'0 0.0
2015-Jul-27 23:33N 40°39' W 074°06'2 1.7
2015-Jul-27 22:33N 40°40' W 074°04'2 2.3
2015-Jul-27 21:33N 40°38' W 074°03'2 2.0
2015-Jul-27 20:33N 40°39' W 074°04'4 4.4
2015-Jul-27 19:33N 40°38' W 074°10'0 0.0
2015-Jul-27 18:33N 40°38' W 074°10'0 0.0
2015-Jul-27 17:33N 40°38' W 074°10'0 0.0
2015-Jul-27 16:32N 40°38' W 074°10'0 0.0
2015-Jul-27 15:33N 40°38' W 074°10'0 0.0
2015-Jul-27 14:33N 40°38' W 074°10'0 0.0
2015-Jul-27 13:33N 40°38' W 074°10'0 0.0
2015-Jul-27 12:33N 40°38' W 074°10'0 0.0
2015-Jul-27 11:33N 40°38' W 074°10'2 2.5
2015-Jul-27 10:33N 40°41' W 074°09'3 2.5
2015-Jul-27 09:33N 40°38' W 074°08'2 2.1
2015-Jul-27 08:33N 40°40' W 074°08'0 0.0
2015-Jul-27 07:33N 40°40' W 074°08'0 0.0
2015-Jul-27 06:33N 40°40' W 074°08'0 0.0
2015-Jul-27 05:33N 40°40' W 074°08'0 0.0
2015-Jul-27 04:33N 40°40' W 074°08'0 0.0
2015-Jul-27 03:33N 40°40' W 074°08'0 0.0
2015-Jul-27 02:33N 40°40' W 074°08'0 0.0
2015-Jul-27 01:33N 40°40' W 074°08'0 0.0
2015-Jul-27 00:33N 40°40' W 074°08'0 0.0
2015-Jul-26 23:33N 40°40' W 074°08'0 0.0
2015-Jul-26 22:33N 40°40' W 074°08'0 0.0
2015-Jul-26 21:33N 40°40' W 074°08'0 0.0
2015-Jul-26 20:33N 40°40' W 074°08'0 0.0
2015-Jul-26 19:33N 40°40' W 074°08'0 0.0
2015-Jul-26 18:33N 40°40' W 074°08'0 0.0
2015-Jul-26 17:33N 40°40' W 074°08'0 0.0
2015-Jul-26 16:33N 40°40' W 074°08'0 0.0
2015-Jul-26 15:33N 40°40' W 074°08'0 0.0
2015-Jul-26 14:33N 40°40' W 074°08'0 0.0
2015-Jul-26 13:33N 40°40' W 074°08'0 0.0
2015-Jul-26 12:33N 40°40' W 074°08'0 0.0
2015-Jul-26 11:33N 40°40' W 074°08'1 0.8
2015-Jul-26 10:33N 40°40' W 074°09'1 1.1
2015-Jul-26 09:33N 40°38' W 074°09'1 1.0
2015-Jul-26 08:33N 40°38' W 074°10'0 0.0
2015-Jul-26 07:33N 40°38' W 074°10'0 0.0
2015-Jul-26 06:33N 40°38' W 074°10'0 0.0
2015-Jul-26 05:33N 40°38' W 074°10'0 0.0
2015-Jul-26 04:33N 40°38' W 074°10'0 0.0
2015-Jul-26 03:33N 40°38' W 074°10'0 0.0
2015-Jul-26 02:33N 40°38' W 074°10'0 0.0
2015-Jul-26 01:33N 40°38' W 074°10'0 0.0
2015-Jul-26 00:33N 40°38' W 074°10'0 0.0
2015-Jul-25 23:33N 40°38' W 074°10'0 0.0
2015-Jul-25 22:33N 40°38' W 074°10'0 0.0
2015-Jul-25 21:33N 40°38' W 074°10'0 0.0
2015-Jul-25 20:33N 40°38' W 074°10'3 2.8
2015-Jul-25 19:33N 40°39' W 074°06'2 2.3
2015-Jul-25 18:33N 40°40' W 074°08'1 0.7
2015-Jul-25 17:33N 40°41' W 074°09'3 2.5
2015-Jul-25 16:33N 40°38' W 074°10'0 0.0
2015-Jul-25 15:33N 40°38' W 074°10'0 0.0
2015-Jul-25 14:33N 40°38' W 074°10'0 0.0
2015-Jul-25 13:33N 40°38' W 074°10'0 0.0
2015-Jul-25 12:33N 40°38' W 074°10'3 3.5
2015-Jul-25 11:33N 40°42' W 074°08'2 1.9
2015-Jul-25 10:34N 40°40' W 074°09'6 6.1
2015-Jul-25 09:33N 40°41' W 074°01'3 2.6
2015-Jul-25 08:33N 40°43' W 073°58'5 5.4
2015-Jul-25 07:33N 40°48' W 073°55'11 5.5
2015-Jul-25 05:31N 40°54' W 073°42'15 7.6
2015-Jul-25 03:33N 41°00' W 073°24'10 0.8
2015-Jul-24 14:19N 40°60' W 073°11'6 7.6
2015-Jul-24 13:33N 41°00' W 073°19'8 7.8
2015-Jul-24 12:32N 40°58' W 073°29'7 7.6
2015-Jul-24 11:33N 40°55' W 073°38'8 7.0
2015-Jul-24 10:29N 40°51' W 073°46'5 5.4
2015-Jul-24 09:33N 40°48' W 073°51'5 5.5
2015-Jul-24 08:33N 40°45' W 073°58'7 7.0
2015-Jul-24 07:33N 40°40' W 074°03'7 7.0
2015-Jul-24 06:33N 40°38' W 074°12'9 2.7
2015-Jul-24 03:22N 40°30' W 074°17'6 3.4
2015-Jul-24 01:31N 40°35' W 074°12'4 3.8
2015-Jul-24 00:33N 40°38' W 074°10'1 1.4
2015-Jul-23 23:33N 40°39' W 074°09'2 1.8
2015-Jul-23 22:33N 40°41' W 074°09'3 2.8
2015-Jul-23 21:33N 40°38' W 074°10'6 4.5
2015-Jul-23 20:19N 40°33' W 074°13'3 1.2
2015-Jul-23 17:33N 40°37' W 074°12'5 5.5
2015-Jul-23 16:33N 40°39' W 074°06'5 4.9
2015-Jul-23 15:33N 40°41' W 074°00'0 0.0
2015-Jul-23 14:33N 40°41' W 074°00'1 0.8
2015-Jul-23 13:34N 40°42' W 073°60'1 0.9
2015-Jul-23 12:33N 40°42' W 073°59'1 1.4
2015-Jul-23 11:33N 40°42' W 074°00'0 0.0
2015-Jul-23 10:33N 40°42' W 074°00'0 0.0
2015-Jul-23 09:33N 40°42' W 074°00'1 1.2
2015-Jul-23 08:33N 40°41' W 074°01'6 5.5
2015-Jul-23 07:33N 40°40' W 074°09'1 1.3
2015-Jul-23 06:33N 40°38' W 074°09'0 0.5
2015-Jul-23 05:33N 40°38' W 074°10'0 0.0
2015-Jul-23 04:33N 40°38' W 074°10'0 0.0
2015-Jul-23 03:33N 40°38' W 074°10'0 0.0
2015-Jul-23 02:33N 40°38' W 074°10'0 0.0
2015-Jul-23 01:33N 40°38' W 074°10'0 0.0
2015-Jul-23 00:33N 40°38' W 074°10'0 0.0
2015-Jul-22 23:33N 40°38' W 074°10'1 0.6
2015-Jul-22 22:33N 40°39' W 074°09'0 0.4
2015-Jul-22 21:33N 40°38' W 074°09'1 1.2
2015-Jul-22 20:33N 40°39' W 074°07'4 3.4
2015-Jul-22 19:20N 40°38' W 074°12'2 2.7
2015-Jul-22 18:33N 40°38' W 074°10'3 2.9
2015-Jul-22 17:32N 40°39' W 074°06'1 0.5
2015-Jul-22 16:32N 40°39' W 074°07'2 2.4
2015-Jul-22 15:33N 40°38' W 074°10'0 0.0
2015-Jul-22 14:31N 40°38' W 074°10'5 4.9
2015-Jul-22 13:31N 40°37' W 074°04'5 4.8
2015-Jul-22 12:31N 40°42' W 074°00'1 1.0
2015-Jul-22 11:33N 40°41' W 074°01'3 3.0
2015-Jul-22 10:28N 40°39' W 074°05'4 4.0
2015-Jul-22 09:32N 40°38' W 074°10'0 0.0
2015-Jul-22 08:32N 40°38' W 074°10'0 0.0
2015-Jul-22 07:29N 40°38' W 074°10'0 0.0
2015-Jul-22 06:32N 40°38' W 074°10'0 0.0
2015-Jul-22 05:32N 40°38' W 074°10'2 2.2
2015-Jul-22 04:31N 40°39' W 074°07'1 0.8
2015-Jul-22 03:33N 40°39' W 074°06'3 2.9
2015-Jul-22 02:33N 40°38' W 074°10'0 0.0
2015-Jul-22 01:33N 40°38' W 074°10'0 0.0
2015-Jul-22 00:33N 40°38' W 074°10'0 0.0
2015-Jul-21 23:33N 40°38' W 074°10'3 3.3
2015-Jul-21 22:32N 40°42' W 074°09'0 0.4
2015-Jul-21 21:33N 40°41' W 074°08'3 3.0
2015-Jul-21 20:34N 40°39' W 074°08'2 1.7
2015-Jul-21 19:32N 40°38' W 074°10'0 0.0
2015-Jul-21 18:32N 40°38' W 074°10'0 0.0
2015-Jul-21 17:32N 40°38' W 074°10'0 0.0
2015-Jul-21 16:26N 40°38' W 074°10'0 0.0
2015-Jul-21 15:32N 40°38' W 074°10'0 0.0
2015-Jul-21 14:32N 40°38' W 074°10'2 2.1
2015-Jul-21 13:33N 40°39' W 074°07'3 2.6
2015-Jul-21 12:32N 40°40' W 074°04'1 1.0
2015-Jul-21 11:33N 40°39' W 074°05'0 0.3
2015-Jul-21 10:32N 40°39' W 074°05'2 2.0
2015-Jul-21 09:33N 40°38' W 074°03'2 2.1
2015-Jul-21 08:31N 40°40' W 074°04'0 0.0
2015-Jul-21 07:33N 40°40' W 074°04'0 0.0
2015-Jul-21 06:33N 40°40' W 074°04'0 0.0
2015-Jul-21 05:33N 40°40' W 074°04'0 0.0
2015-Jul-21 04:33N 40°40' W 074°04'3 2.7
2015-Jul-21 03:31N 40°40' W 074°00'5 5.7
2015-Jul-21 02:33N 40°39' W 074°07'3 3.0
2015-Jul-21 01:33N 40°39' W 074°11'0 0.1
2015-Jul-21 00:33N 40°38' W 074°11'8 7.6
2015-Jul-20 23:34N 40°41' W 074°02'2 2.1
2015-Jul-20 22:33N 40°42' W 073°60'7 7.0
2015-Jul-20 21:32N 40°40' W 074°09'1 1.5
2015-Jul-20 20:33N 40°39' W 074°08'2 1.7
2015-Jul-20 19:32N 40°38' W 074°10'0 0.0
2015-Jul-20 18:32N 40°38' W 074°10'2 1.6
2015-Jul-20 17:33N 40°40' W 074°09'2 2.1
2015-Jul-20 16:31N 40°42' W 074°09'0 0.0
2015-Jul-20 15:32N 40°42' W 074°09'2 2.5
2015-Jul-20 14:33N 40°39' W 074°09'5 4.6
2015-Jul-20 13:33N 40°38' W 074°03'2 2.2
2015-Jul-20 12:33N 40°40' W 074°04'5 4.9
2015-Jul-20 11:32N 40°42' W 073°58'2 1.7
2015-Jul-20 10:31N 40°41' W 074°00'0 0.0
2015-Jul-20 09:31N 40°41' W 074°00'0 0.0
2015-Jul-20 08:31N 40°41' W 074°00'0 0.0
2015-Jul-20 07:31N 40°41' W 074°00'0 0.0
2015-Jul-20 06:31N 40°41' W 074°00'0 0.1
2015-Jul-20 05:31N 40°42' W 074°00'2 1.7
2015-Jul-20 04:33N 40°42' W 073°58'0 0.0
2015-Jul-20 03:33N 40°42' W 073°58'2 2.2
2015-Jul-20 02:33N 40°41' W 074°01'1 0.8
2015-Jul-20 01:33N 40°41' W 074°02'6 5.8
2015-Jul-20 00:32N 40°35' W 074°02'6 5.7
2015-Jul-19 23:34N 40°39' W 074°07'3 3.2
2015-Jul-19 22:33N 40°42' W 074°09'4 3.6
2015-Jul-19 21:32N 40°39' W 074°06'2 1.8
2015-Jul-19 20:34N 40°39' W 074°03'6 6.5
2015-Jul-19 19:33N 40°38' W 074°12'2 0.6
2015-Jul-19 16:03N 40°36' W 074°12'3 3.8
2015-Jul-19 15:21N 40°39' W 074°11'1 1.1
2015-Jul-19 14:25N 40°38' W 074°10'0 0.0
2015-Jul-19 13:28N 40°38' W 074°10'0 0.0
2015-Jul-19 12:31N 40°38' W 074°10'0 0.0
2015-Jul-19 11:31N 40°38' W 074°10'0 0.0
2015-Jul-19 10:28N 40°38' W 074°10'0 0.0
2015-Jul-19 09:22N 40°38' W 074°10'0 0.0
2015-Jul-19 08:31N 40°38' W 074°10'0 0.0
2015-Jul-19 07:31N 40°38' W 074°10'0 0.0
2015-Jul-19 06:32N 40°38' W 074°10'3 2.9
2015-Jul-19 05:30N 40°36' W 074°12'0 0.3
2015-Jul-19 04:06N 40°36' W 074°12'  
Track history (hours):
 
Tides and Currents Weather Stations Pressure Air Temp Water Temp Dewpoint Dewpoint Depression Visibility Wind Speed Wind Dir Waves Ship Positions

Resolute

Owner: Providence Steamboat Co., PROVIDENCE, RI. More information available from US FCC via Universal Licensing System and Coast Guard Vessel Documentation Center.

Last reported at 2015-Jul-29 00:33 UTC. Time now 2015-Jul-29 00:34 UTC.
Position N 40°40' W 074°05'.

Length 30 m; draft 4 m.

Type: Tug. MMSI: 367091630.

Date/timePositionNaut miles runAvg speedWind from/ knotsBaromVisibWave heightAir tempDewpointWater temp
2015-Jul-29 00:33N 40°40' W 074°05'2 2.3
2015-Jul-28 23:33N 40°38' W 074°03'8 8.0
2015-Jul-28 22:33N 40°31' W 073°59'9 9.2
2015-Jul-28 21:34N 40°40' W 074°04'0 0.4
2015-Jul-28 20:33N 40°40' W 074°04'0 0.0
2015-Jul-28 19:33N 40°40' W 074°04'0 0.0
2015-Jul-28 18:33N 40°40' W 074°04'3 3.2
2015-Jul-28 17:33N 40°40' W 074°08'3 2.5
2015-Jul-28 16:34N 40°39' W 074°06'0 0.0
2015-Jul-28 15:33N 40°39' W 074°06'0 0.0
2015-Jul-28 14:33N 40°39' W 074°06'0 0.0
2015-Jul-28 13:33N 40°39' W 074°06'0 0.0
2015-Jul-28 12:33N 40°39' W 074°06'0 0.0
2015-Jul-28 11:33N 40°39' W 074°06'0 0.0
2015-Jul-28 10:33N 40°39' W 074°06'0 0.0
2015-Jul-28 09:33N 40°39' W 074°06'0 0.0
2015-Jul-28 08:33N 40°39' W 074°06'0 0.0
2015-Jul-28 07:33N 40°39' W 074°06'0 0.0
2015-Jul-28 06:33N 40°39' W 074°06'0 0.0
2015-Jul-28 05:33N 40°39' W 074°06'0 0.0
2015-Jul-28 04:33N 40°39' W 074°06'0 0.0
2015-Jul-28 03:33N 40°39' W 074°06'0 0.0
2015-Jul-28 02:33N 40°39' W 074°06'0 0.0
2015-Jul-28 01:33N 40°39' W 074°06'0 0.0
2015-Jul-28 00:33N 40°39' W 074°06'0 0.0
2015-Jul-27 23:33N 40°39' W 074°06'2 1.7
2015-Jul-27 22:33N 40°40' W 074°04'2 2.3
2015-Jul-27 21:33N 40°38' W 074°03'2 2.0
2015-Jul-27 20:33N 40°39' W 074°04'4 4.4
2015-Jul-27 19:33N 40°38' W 074°10'0 0.0
2015-Jul-27 18:33N 40°38' W 074°10'0 0.0
2015-Jul-27 17:33N 40°38' W 074°10'0 0.0
2015-Jul-27 16:32N 40°38' W 074°10'0 0.0
2015-Jul-27 15:33N 40°38' W 074°10'0 0.0
2015-Jul-27 14:33N 40°38' W 074°10'0 0.0
2015-Jul-27 13:33N 40°38' W 074°10'0 0.0
2015-Jul-27 12:33N 40°38' W 074°10'0 0.0
2015-Jul-27 11:33N 40°38' W 074°10'2 2.5
2015-Jul-27 10:33N 40°41' W 074°09'3 2.5
2015-Jul-27 09:33N 40°38' W 074°08'2 2.1
2015-Jul-27 08:33N 40°40' W 074°08'0 0.0
2015-Jul-27 07:33N 40°40' W 074°08'0 0.0
2015-Jul-27 06:33N 40°40' W 074°08'0 0.0
2015-Jul-27 05:33N 40°40' W 074°08'0 0.0
2015-Jul-27 04:33N 40°40' W 074°08'0 0.0
2015-Jul-27 03:33N 40°40' W 074°08'0 0.0
2015-Jul-27 02:33N 40°40' W 074°08'0 0.0
2015-Jul-27 01:33N 40°40' W 074°08'0 0.0
2015-Jul-27 00:33N 40°40' W 074°08'0 0.0
2015-Jul-26 23:33N 40°40' W 074°08'0 0.0
2015-Jul-26 22:33N 40°40' W 074°08'0 0.0
2015-Jul-26 21:33N 40°40' W 074°08'0 0.0
2015-Jul-26 20:33N 40°40' W 074°08'0 0.0
2015-Jul-26 19:33N 40°40' W 074°08'0 0.0
2015-Jul-26 18:33N 40°40' W 074°08'0 0.0
2015-Jul-26 17:33N 40°40' W 074°08'0 0.0
2015-Jul-26 16:33N 40°40' W 074°08'0 0.0
2015-Jul-26 15:33N 40°40' W 074°08'0 0.0
2015-Jul-26 14:33N 40°40' W 074°08'0 0.0
2015-Jul-26 13:33N 40°40' W 074°08'0 0.0
2015-Jul-26 12:33N 40°40' W 074°08'0 0.0
2015-Jul-26 11:33N 40°40' W 074°08'1 0.8
2015-Jul-26 10:33N 40°40' W 074°09'1 1.1
2015-Jul-26 09:33N 40°38' W 074°09'1 1.0
2015-Jul-26 08:33N 40°38' W 074°10'0 0.0
2015-Jul-26 07:33N 40°38' W 074°10'0 0.0
2015-Jul-26 06:33N 40°38' W 074°10'0 0.0
2015-Jul-26 05:33N 40°38' W 074°10'0 0.0
2015-Jul-26 04:33N 40°38' W 074°10'0 0.0
2015-Jul-26 03:33N 40°38' W 074°10'0 0.0
2015-Jul-26 02:33N 40°38' W 074°10'0 0.0
2015-Jul-26 01:33N 40°38' W 074°10'0 0.0
2015-Jul-26 00:33N 40°38' W 074°10'0 0.0
2015-Jul-25 23:33N 40°38' W 074°10'0 0.0
2015-Jul-25 22:33N 40°38' W 074°10'0 0.0
2015-Jul-25 21:33N 40°38' W 074°10'0 0.0
2015-Jul-25 20:33N 40°38' W 074°10'3 2.8
2015-Jul-25 19:33N 40°39' W 074°06'2 2.3
2015-Jul-25 18:33N 40°40' W 074°08'1 0.7
2015-Jul-25 17:33N 40°41' W 074°09'3 2.5
2015-Jul-25 16:33N 40°38' W 074°10'0 0.0
2015-Jul-25 15:33N 40°38' W 074°10'0 0.0
2015-Jul-25 14:33N 40°38' W 074°10'0 0.0
2015-Jul-25 13:33N 40°38' W 074°10'0 0.0
2015-Jul-25 12:33N 40°38' W 074°10'3 3.5
2015-Jul-25 11:33N 40°42' W 074°08'2 1.9
2015-Jul-25 10:34N 40°40' W 074°09'6 6.1
2015-Jul-25 09:33N 40°41' W 074°01'3 2.6
2015-Jul-25 08:33N 40°43' W 073°58'5 5.4
2015-Jul-25 07:33N 40°48' W 073°55'11 5.5
2015-Jul-25 05:31N 40°54' W 073°42'15 7.6
2015-Jul-25 03:33N 41°00' W 073°24'10 0.8
2015-Jul-24 14:19N 40°60' W 073°11'6 7.6
2015-Jul-24 13:33N 41°00' W 073°19'8 7.8
2015-Jul-24 12:32N 40°58' W 073°29'7 7.6
2015-Jul-24 11:33N 40°55' W 073°38'8 7.0
2015-Jul-24 10:29N 40°51' W 073°46'5 5.4
2015-Jul-24 09:33N 40°48' W 073°51'5 5.5
2015-Jul-24 08:33N 40°45' W 073°58'7 7.0
2015-Jul-24 07:33N 40°40' W 074°03'7 7.0
2015-Jul-24 06:33N 40°38' W 074°12'9 2.7
2015-Jul-24 03:22N 40°30' W 074°17'6 3.4
2015-Jul-24 01:31N 40°35' W 074°12'4 3.8
2015-Jul-24 00:33N 40°38' W 074°10'1 1.4
2015-Jul-23 23:33N 40°39' W 074°09'2 1.8
2015-Jul-23 22:33N 40°41' W 074°09'3 2.8
2015-Jul-23 21:33N 40°38' W 074°10'6 4.5
2015-Jul-23 20:19N 40°33' W 074°13'3 1.2
2015-Jul-23 17:33N 40°37' W 074°12'5 5.5
2015-Jul-23 16:33N 40°39' W 074°06'5 4.9
2015-Jul-23 15:33N 40°41' W 074°00'0 0.0
2015-Jul-23 14:33N 40°41' W 074°00'1 0.8
2015-Jul-23 13:34N 40°42' W 073°60'1 0.9
2015-Jul-23 12:33N 40°42' W 073°59'1 1.4
2015-Jul-23 11:33N 40°42' W 074°00'0 0.0
2015-Jul-23 10:33N 40°42' W 074°00'0 0.0
2015-Jul-23 09:33N 40°42' W 074°00'1 1.2
2015-Jul-23 08:33N 40°41' W 074°01'6 5.5
2015-Jul-23 07:33N 40°40' W 074°09'1 1.3
2015-Jul-23 06:33N 40°38' W 074°09'0 0.5
2015-Jul-23 05:33N 40°38' W 074°10'0 0.0
2015-Jul-23 04:33N 40°38' W 074°10'0 0.0
2015-Jul-23 03:33N 40°38' W 074°10'0 0.0
2015-Jul-23 02:33N 40°38' W 074°10'0 0.0
2015-Jul-23 01:33N 40°38' W 074°10'0 0.0
2015-Jul-23 00:33N 40°38' W 074°10'0 0.0
2015-Jul-22 23:33N 40°38' W 074°10'1 0.6
2015-Jul-22 22:33N 40°39' W 074°09'0 0.4
2015-Jul-22 21:33N 40°38' W 074°09'1 1.2
2015-Jul-22 20:33N 40°39' W 074°07'4 3.4
2015-Jul-22 19:20N 40°38' W 074°12'2 2.7
2015-Jul-22 18:33N 40°38' W 074°10'3 2.9
2015-Jul-22 17:32N 40°39' W 074°06'1 0.5
2015-Jul-22 16:32N 40°39' W 074°07'2 2.4
2015-Jul-22 15:33N 40°38' W 074°10'0 0.0
2015-Jul-22 14:31N 40°38' W 074°10'5 4.9
2015-Jul-22 13:31N 40°37' W 074°04'5 4.8
2015-Jul-22 12:31N 40°42' W 074°00'1 1.0
2015-Jul-22 11:33N 40°41' W 074°01'3 3.0
2015-Jul-22 10:28N 40°39' W 074°05'4 4.0
2015-Jul-22 09:32N 40°38' W 074°10'0 0.0
2015-Jul-22 08:32N 40°38' W 074°10'0 0.0
2015-Jul-22 07:29N 40°38' W 074°10'0 0.0
2015-Jul-22 06:32N 40°38' W 074°10'0 0.0
2015-Jul-22 05:32N 40°38' W 074°10'2 2.2
2015-Jul-22 04:31N 40°39' W 074°07'1 0.8
2015-Jul-22 03:33N 40°39' W 074°06'3 2.9
2015-Jul-22 02:33N 40°38' W 074°10'0 0.0
2015-Jul-22 01:33N 40°38' W 074°10'0 0.0
2015-Jul-22 00:33N 40°38' W 074°10'0 0.0
2015-Jul-21 23:33N 40°38' W 074°10'3 3.3
2015-Jul-21 22:32N 40°42' W 074°09'0 0.4
2015-Jul-21 21:33N 40°41' W 074°08'3 3.0
2015-Jul-21 20:34N 40°39' W 074°08'2 1.7
2015-Jul-21 19:32N 40°38' W 074°10'0 0.0
2015-Jul-21 18:32N 40°38' W 074°10'0 0.0
2015-Jul-21 17:32N 40°38' W 074°10'0 0.0
2015-Jul-21 16:26N 40°38' W 074°10'0 0.0
2015-Jul-21 15:32N 40°38' W 074°10'0 0.0
2015-Jul-21 14:32N 40°38' W 074°10'2 2.1
2015-Jul-21 13:33N 40°39' W 074°07'3 2.6
2015-Jul-21 12:32N 40°40' W 074°04'1 1.0
2015-Jul-21 11:33N 40°39' W 074°05'0 0.3
2015-Jul-21 10:32N 40°39' W 074°05'2 2.0
2015-Jul-21 09:33N 40°38' W 074°03'2 2.1
2015-Jul-21 08:31N 40°40' W 074°04'0 0.0
2015-Jul-21 07:33N 40°40' W 074°04'0 0.0
2015-Jul-21 06:33N 40°40' W 074°04'0 0.0
2015-Jul-21 05:33N 40°40' W 074°04'0 0.0
2015-Jul-21 04:33N 40°40' W 074°04'3 2.7
2015-Jul-21 03:31N 40°40' W 074°00'5 5.7
2015-Jul-21 02:33N 40°39' W 074°07'3 3.0
2015-Jul-21 01:33N 40°39' W 074°11'0 0.1
2015-Jul-21 00:33N 40°38' W 074°11'8 7.6
2015-Jul-20 23:34N 40°41' W 074°02'2 2.1
2015-Jul-20 22:33N 40°42' W 073°60'7 7.0
2015-Jul-20 21:32N 40°40' W 074°09'1 1.5
2015-Jul-20 20:33N 40°39' W 074°08'2 1.7
2015-Jul-20 19:32N 40°38' W 074°10'0 0.0
2015-Jul-20 18:32N 40°38' W 074°10'2 1.6
2015-Jul-20 17:33N 40°40' W 074°09'2 2.1
2015-Jul-20 16:31N 40°42' W 074°09'0 0.0
2015-Jul-20 15:32N 40°42' W 074°09'2 2.5
2015-Jul-20 14:33N 40°39' W 074°09'5 4.6
2015-Jul-20 13:33N 40°38' W 074°03'2 2.2
2015-Jul-20 12:33N 40°40' W 074°04'5 4.9
2015-Jul-20 11:32N 40°42' W 073°58'2 1.7
2015-Jul-20 10:31N 40°41' W 074°00'0 0.0
2015-Jul-20 09:31N 40°41' W 074°00'0 0.0
2015-Jul-20 08:31N 40°41' W 074°00'0 0.0
2015-Jul-20 07:31N 40°41' W 074°00'0 0.0
2015-Jul-20 06:31N 40°41' W 074°00'0 0.1
2015-Jul-20 05:31N 40°42' W 074°00'2 1.7
2015-Jul-20 04:33N 40°42' W 073°58'0 0.0
2015-Jul-20 03:33N 40°42' W 073°58'2 2.2
2015-Jul-20 02:33N 40°41' W 074°01'1 0.8
2015-Jul-20 01:33N 40°41' W 074°02'6 5.8
2015-Jul-20 00:32N 40°35' W 074°02'6 5.7
2015-Jul-19 23:34N 40°39' W 074°07'3 3.2
2015-Jul-19 22:33N 40°42' W 074°09'4 3.6
2015-Jul-19 21:32N 40°39' W 074°06'2 1.8
2015-Jul-19 20:34N 40°39' W 074°03'6 6.5
2015-Jul-19 19:33N 40°38' W 074°12'2 0.6
2015-Jul-19 16:03N 40°36' W 074°12'3 3.8
2015-Jul-19 15:21N 40°39' W 074°11'1 1.1
2015-Jul-19 14:25N 40°38' W 074°10'0 0.0
2015-Jul-19 13:28N 40°38' W 074°10'0 0.0
2015-Jul-19 12:31N 40°38' W 074°10'0 0.0
2015-Jul-19 11:31N 40°38' W 074°10'0 0.0
2015-Jul-19 10:28N 40°38' W 074°10'0 0.0
2015-Jul-19 09:22N 40°38' W 074°10'0 0.0
2015-Jul-19 08:31N 40°38' W 074°10'0 0.0
2015-Jul-19 07:31N 40°38' W 074°10'0 0.0
2015-Jul-19 06:32N 40°38' W 074°10'3 2.9
2015-Jul-19 05:30N 40°36' W 074°12'0 0.3
2015-Jul-19 04:06N 40°36' W 074°12'  

Dump ship's entire track history